sensor_id;sensor_type;location;lat;lon;timestamp;temperature;humidity
24682;DHT22;12802;53.390;-2.328;2022-07-29T00:02:26;17.10;99.90
24682;DHT22;12802;53.390;-2.328;2022-07-29T00:04:52;17.10;99.90
24682;DHT22;12802;53.390;-2.328;2022-07-29T00:07:18;17.20;99.90
24682;DHT22;12802;53.390;-2.328;2022-07-29T00:09:44;17.20;99.90
24682;DHT22;12802;53.390;-2.328;2022-07-29T00:12:10;17.20;99.90
24682;DHT22;12802;53.390;-2.328;2022-07-29T00:14:35;17.20;99.90
24682;DHT22;12802;53.390;-2.328;2022-07-29T00:17:01;17.20;99.90
24682;DHT22;12802;53.390;-2.328;2022-07-29T00:19:27;17.20;99.90
24682;DHT22;12802;53.390;-2.328;2022-07-29T00:21:53;17.20;99.90
24682;DHT22;12802;53.390;-2.328;2022-07-29T00:24:18;17.10;99.90
24682;DHT22;12802;53.390;-2.328;2022-07-29T00:26:44;17.20;99.90
24682;DHT22;12802;53.390;-2.328;2022-07-29T00:29:10;17.10;99.90
24682;DHT22;12802;53.390;-2.328;2022-07-29T00:31:36;17.10;99.90
24682;DHT22;12802;53.390;-2.328;2022-07-29T00:34:02;17.10;99.90
24682;DHT22;12802;53.390;-2.328;2022-07-29T00:36:28;17.00;99.90
24682;DHT22;12802;53.390;-2.328;2022-07-29T00:38:54;17.00;99.90
24682;DHT22;12802;53.390;-2.328;2022-07-29T00:41:20;17.10;99.90
24682;DHT22;12802;53.390;-2.328;2022-07-29T00:43:46;17.00;99.90
24682;DHT22;12802;53.390;-2.328;2022-07-29T00:46:12;17.00;99.90
24682;DHT22;12802;53.390;-2.328;2022-07-29T00:48:38;17.00;99.90
24682;DHT22;12802;53.390;-2.328;2022-07-29T00:51:05;17.00;99.90
24682;DHT22;12802;53.390;-2.328;2022-07-29T00:53:34;17.00;99.90
24682;DHT22;12802;53.390;-2.328;2022-07-29T00:56:00;17.00;99.90
24682;DHT22;12802;53.390;-2.328;2022-07-29T00:58:26;17.00;99.90
24682;DHT22;12802;53.390;-2.328;2022-07-29T01:00:53;17.00;99.90
24682;DHT22;12802;53.390;-2.328;2022-07-29T01:03:19;17.00;99.90
24682;DHT22;12802;53.390;-2.328;2022-07-29T01:05:45;17.00;99.90
24682;DHT22;12802;53.390;-2.328;2022-07-29T01:08:14;17.00;99.90
24682;DHT22;12802;53.390;-2.328;2022-07-29T01:10:41;17.00;99.90
24682;DHT22;12802;53.390;-2.328;2022-07-29T01:13:09;17.00;99.90
24682;DHT22;12802;53.390;-2.328;2022-07-29T01:15:44;17.00;99.90
24682;DHT22;12802;53.390;-2.328;2022-07-29T01:32:17;17.00;99.90
24682;DHT22;12802;53.390;-2.328;2022-07-29T01:37:26;17.00;99.90
24682;DHT22;12802;53.390;-2.328;2022-07-29T01:39:56;17.00;99.90
24682;DHT22;12802;53.390;-2.328;2022-07-29T01:42:34;17.00;99.90
24682;DHT22;12802;53.390;-2.328;2022-07-29T01:47:41;17.00;99.90
24682;DHT22;12802;53.390;-2.328;2022-07-29T01:50:12;16.90;99.90
24682;DHT22;12802;53.390;-2.328;2022-07-29T01:52:46;17.00;99.90
24682;DHT22;12802;53.390;-2.328;2022-07-29T01:55:16;16.90;99.90
24682;DHT22;12802;53.390;-2.328;2022-07-29T01:58:21;16.90;99.90
24682;DHT22;12802;53.390;-2.328;2022-07-29T02:00:49;16.90;99.90
24682;DHT22;12802;53.390;-2.328;2022-07-29T02:03:17;16.90;99.90
24682;DHT22;12802;53.390;-2.328;2022-07-29T02:05:45;16.90;99.90
24682;DHT22;12802;53.390;-2.328;2022-07-29T02:08:18;17.00;99.90
24682;DHT22;12802;53.390;-2.328;2022-07-29T02:11:01;17.00;99.90
24682;DHT22;12802;53.390;-2.328;2022-07-29T02:13:29;17.10;99.90
24682;DHT22;12802;53.390;-2.328;2022-07-29T02:15:57;17.10;99.90
24682;DHT22;12802;53.390;-2.328;2022-07-29T02:18:25;17.10;99.90
24682;DHT22;12802;53.390;-2.328;2022-07-29T02:20:54;17.10;99.90
24682;DHT22;12802;53.390;-2.328;2022-07-29T02:23:23;17.10;99.90
24682;DHT22;12802;53.390;-2.328;2022-07-29T02:25:54;17.10;99.90
24682;DHT22;12802;53.390;-2.328;2022-07-29T02:28:22;17.10;99.90
24682;DHT22;12802;53.390;-2.328;2022-07-29T02:31:01;17.10;99.90
24682;DHT22;12802;53.390;-2.328;2022-07-29T02:33:33;17.10;99.90
24682;DHT22;12802;53.390;-2.328;2022-07-29T02:36:05;17.10;99.90
24682;DHT22;12802;53.390;-2.328;2022-07-29T02:38:32;17.10;99.90
24682;DHT22;12802;53.390;-2.328;2022-07-29T02:41:38;17.10;99.90
24682;DHT22;12802;53.390;-2.328;2022-07-29T02:44:10;17.10;99.90
24682;DHT22;12802;53.390;-2.328;2022-07-29T02:46:45;17.10;99.90
24682;DHT22;12802;53.390;-2.328;2022-07-29T02:49:35;17.10;99.90
24682;DHT22;12802;53.390;-2.328;2022-07-29T02:52:26;17.00;99.90
24682;DHT22;12802;53.390;-2.328;2022-07-29T03:00:44;16.90;99.90
24682;DHT22;12802;53.390;-2.328;2022-07-29T03:03:13;16.90;99.90
24682;DHT22;12802;53.390;-2.328;2022-07-29T03:05:40;16.90;99.90
24682;DHT22;12802;53.390;-2.328;2022-07-29T03:08:08;16.80;99.90
24682;DHT22;12802;53.390;-2.328;2022-07-29T03:10:34;16.80;99.90
24682;DHT22;12802;53.390;-2.328;2022-07-29T03:13:02;16.80;99.90
24682;DHT22;12802;53.390;-2.328;2022-07-29T03:15:29;16.70;99.90
24682;DHT22;12802;53.390;-2.328;2022-07-29T03:17:57;16.60;99.90
24682;DHT22;12802;53.390;-2.328;2022-07-29T03:20:24;16.60;99.90
24682;DHT22;12802;53.390;-2.328;2022-07-29T03:22:50;16.60;99.90
24682;DHT22;12802;53.390;-2.328;2022-07-29T03:25:18;16.50;99.90
24682;DHT22;12802;53.390;-2.328;2022-07-29T03:27:45;16.40;99.90
24682;DHT22;12802;53.390;-2.328;2022-07-29T03:30:12;16.30;99.90
24682;DHT22;12802;53.390;-2.328;2022-07-29T03:32:39;16.30;99.90
24682;DHT22;12802;53.390;-2.328;2022-07-29T03:35:06;16.30;99.90
24682;DHT22;12802;53.390;-2.328;2022-07-29T03:37:32;16.20;99.90
24682;DHT22;12802;53.390;-2.328;2022-07-29T03:40:00;16.10;99.90
24682;DHT22;12802;53.390;-2.328;2022-07-29T03:42:31;16.00;99.90
24682;DHT22;12802;53.390;-2.328;2022-07-29T03:44:59;16.00;99.90
24682;DHT22;12802;53.390;-2.328;2022-07-29T03:47:27;15.90;99.90
24682;DHT22;12802;53.390;-2.328;2022-07-29T03:49:59;15.90;99.90
24682;DHT22;12802;53.390;-2.328;2022-07-29T03:52:25;15.90;99.90
24682;DHT22;12802;53.390;-2.328;2022-07-29T03:54:52;15.90;99.90
24682;DHT22;12802;53.390;-2.328;2022-07-29T03:57:23;15.90;99.90
24682;DHT22;12802;53.390;-2.328;2022-07-29T03:59:51;15.90;99.90
24682;DHT22;12802;53.390;-2.328;2022-07-29T04:02:17;15.90;99.90
24682;DHT22;12802;53.390;-2.328;2022-07-29T04:04:44;15.80;99.90
24682;DHT22;12802;53.390;-2.328;2022-07-29T04:07:13;15.80;99.90
24682;DHT22;12802;53.390;-2.328;2022-07-29T04:09:39;15.80;99.90
24682;DHT22;12802;53.390;-2.328;2022-07-29T04:12:05;15.80;99.90
24682;DHT22;12802;53.390;-2.328;2022-07-29T04:14:32;15.80;99.90
24682;DHT22;12802;53.390;-2.328;2022-07-29T04:16:59;15.70;99.90
24682;DHT22;12802;53.390;-2.328;2022-07-29T04:19:25;15.70;99.90
24682;DHT22;12802;53.390;-2.328;2022-07-29T04:21:51;15.70;99.90
24682;DHT22;12802;53.390;-2.328;2022-07-29T04:24:17;15.60;99.90
24682;DHT22;12802;53.390;-2.328;2022-07-29T04:26:42;15.60;99.90
24682;DHT22;12802;53.390;-2.328;2022-07-29T04:29:08;15.60;99.90
24682;DHT22;12802;53.390;-2.328;2022-07-29T04:31:34;15.50;99.90
24682;DHT22;12802;53.390;-2.328;2022-07-29T04:34:00;15.40;99.90
24682;DHT22;12802;53.390;-2.328;2022-07-29T04:36:25;15.40;99.90
24682;DHT22;12802;53.390;-2.328;2022-07-29T04:38:51;15.40;99.90
24682;DHT22;12802;53.390;-2.328;2022-07-29T04:41:17;15.40;99.90
24682;DHT22;12802;53.390;-2.328;2022-07-29T04:43:43;15.30;99.90
24682;DHT22;12802;53.390;-2.328;2022-07-29T04:46:09;15.30;99.90
24682;DHT22;12802;53.390;-2.328;2022-07-29T04:48:34;15.20;99.90
24682;DHT22;12802;53.390;-2.328;2022-07-29T04:51:00;15.20;99.90
24682;DHT22;12802;53.390;-2.328;2022-07-29T04:53:26;15.30;99.90
24682;DHT22;12802;53.390;-2.328;2022-07-29T04:55:52;15.40;99.90
24682;DHT22;12802;53.390;-2.328;2022-07-29T04:58:18;15.40;99.90
24682;DHT22;12802;53.390;-2.328;2022-07-29T05:00:43;15.40;99.90
24682;DHT22;12802;53.390;-2.328;2022-07-29T05:03:09;15.30;99.90
24682;DHT22;12802;53.390;-2.328;2022-07-29T05:05:35;15.30;99.90
24682;DHT22;12802;53.390;-2.328;2022-07-29T05:08:01;15.40;99.90
24682;DHT22;12802;53.390;-2.328;2022-07-29T05:10:27;15.40;99.90
24682;DHT22;12802;53.390;-2.328;2022-07-29T05:12:54;15.30;99.90
24682;DHT22;12802;53.390;-2.328;2022-07-29T05:15:20;15.30;99.90
24682;DHT22;12802;53.390;-2.328;2022-07-29T05:17:45;15.30;99.90
24682;DHT22;12802;53.390;-2.328;2022-07-29T05:20:11;15.30;99.90
24682;DHT22;12802;53.390;-2.328;2022-07-29T05:22:37;15.30;99.90
24682;DHT22;12802;53.390;-2.328;2022-07-29T05:25:03;15.30;99.90
24682;DHT22;12802;53.390;-2.328;2022-07-29T05:27:29;15.40;99.90
24682;DHT22;12802;53.390;-2.328;2022-07-29T05:29:55;15.50;99.90
24682;DHT22;12802;53.390;-2.328;2022-07-29T05:32:21;15.50;99.90
24682;DHT22;12802;53.390;-2.328;2022-07-29T05:34:46;15.50;99.90
24682;DHT22;12802;53.390;-2.328;2022-07-29T05:37:12;15.50;99.90
24682;DHT22;12802;53.390;-2.328;2022-07-29T05:39:39;15.50;99.90
24682;DHT22;12802;53.390;-2.328;2022-07-29T05:42:09;15.60;99.90
24682;DHT22;12802;53.390;-2.328;2022-07-29T05:44:39;15.60;99.90
24682;DHT22;12802;53.390;-2.328;2022-07-29T05:47:05;15.60;99.90
24682;DHT22;12802;53.390;-2.328;2022-07-29T05:49:32;15.60;99.90
24682;DHT22;12802;53.390;-2.328;2022-07-29T05:51:58;15.60;99.90
24682;DHT22;12802;53.390;-2.328;2022-07-29T05:54:24;15.60;99.90
24682;DHT22;12802;53.390;-2.328;2022-07-29T05:56:49;15.60;99.90
24682;DHT22;12802;53.390;-2.328;2022-07-29T05:59:15;15.60;99.90
24682;DHT22;12802;53.390;-2.328;2022-07-29T06:01:41;15.70;99.90
24682;DHT22;12802;53.390;-2.328;2022-07-29T06:04:07;15.70;99.90
24682;DHT22;12802;53.390;-2.328;2022-07-29T06:06:33;15.70;99.90
24682;DHT22;12802;53.390;-2.328;2022-07-29T06:09:00;15.60;99.90
24682;DHT22;12802;53.390;-2.328;2022-07-29T06:11:26;15.50;99.90
24682;DHT22;12802;53.390;-2.328;2022-07-29T06:13:52;15.60;99.90
24682;DHT22;12802;53.390;-2.328;2022-07-29T06:16:18;15.50;99.90
24682;DHT22;12802;53.390;-2.328;2022-07-29T06:18:44;15.50;99.90
24682;DHT22;12802;53.390;-2.328;2022-07-29T06:21:10;15.50;99.90
24682;DHT22;12802;53.390;-2.328;2022-07-29T06:23:39;15.50;99.90
24682;DHT22;12802;53.390;-2.328;2022-07-29T06:26:05;15.50;99.90
24682;DHT22;12802;53.390;-2.328;2022-07-29T06:28:32;15.50;99.90
24682;DHT22;12802;53.390;-2.328;2022-07-29T06:30:58;15.50;99.90
24682;DHT22;12802;53.390;-2.328;2022-07-29T06:33:24;15.60;99.90
24682;DHT22;12802;53.390;-2.328;2022-07-29T06:35:50;15.70;99.90
24682;DHT22;12802;53.390;-2.328;2022-07-29T06:38:16;15.70;99.90
24682;DHT22;12802;53.390;-2.328;2022-07-29T06:40:43;15.70;99.90
24682;DHT22;12802;53.390;-2.328;2022-07-29T06:43:33;15.70;99.90
24682;DHT22;12802;53.390;-2.328;2022-07-29T06:46:08;15.70;99.90
24682;DHT22;12802;53.390;-2.328;2022-07-29T06:48:35;15.70;99.90
24682;DHT22;12802;53.390;-2.328;2022-07-29T06:51:05;15.70;99.90
24682;DHT22;12802;53.390;-2.328;2022-07-29T06:53:32;15.70;99.90
24682;DHT22;12802;53.390;-2.328;2022-07-29T06:56:03;15.70;99.90
24682;DHT22;12802;53.390;-2.328;2022-07-29T06:58:29;15.80;99.90
24682;DHT22;12802;53.390;-2.328;2022-07-29T07:01:01;15.70;99.90
24682;DHT22;12802;53.390;-2.328;2022-07-29T07:03:27;15.80;99.90
24682;DHT22;12802;53.390;-2.328;2022-07-29T07:05:54;15.90;99.90
24682;DHT22;12802;53.390;-2.328;2022-07-29T07:08:21;15.90;99.90
24682;DHT22;12802;53.390;-2.328;2022-07-29T07:10:48;15.90;99.90
24682;DHT22;12802;53.390;-2.328;2022-07-29T07:13:14;15.70;99.90
24682;DHT22;12802;53.390;-2.328;2022-07-29T07:15:40;15.70;99.90
24682;DHT22;12802;53.390;-2.328;2022-07-29T07:18:06;15.70;99.90
24682;DHT22;12802;53.390;-2.328;2022-07-29T07:20:33;15.70;99.90
24682;DHT22;12802;53.390;-2.328;2022-07-29T07:22:59;15.70;99.90
24682;DHT22;12802;53.390;-2.328;2022-07-29T07:25:25;15.70;99.90
24682;DHT22;12802;53.390;-2.328;2022-07-29T07:27:51;15.70;99.90
24682;DHT22;12802;53.390;-2.328;2022-07-29T07:30:17;15.80;99.90
24682;DHT22;12802;53.390;-2.328;2022-07-29T07:32:43;15.80;99.90
24682;DHT22;12802;53.390;-2.328;2022-07-29T07:35:09;15.80;99.90
24682;DHT22;12802;53.390;-2.328;2022-07-29T07:37:36;15.80;99.90
24682;DHT22;12802;53.390;-2.328;2022-07-29T07:40:03;15.80;99.90
24682;DHT22;12802;53.390;-2.328;2022-07-29T07:42:29;15.80;99.90
24682;DHT22;12802;53.390;-2.328;2022-07-29T07:44:55;15.90;99.90
24682;DHT22;12802;53.390;-2.328;2022-07-29T07:47:21;15.90;99.90
24682;DHT22;12802;53.390;-2.328;2022-07-29T07:49:49;15.90;99.90
24682;DHT22;12802;53.390;-2.328;2022-07-29T07:52:16;16.00;99.90
24682;DHT22;12802;53.390;-2.328;2022-07-29T07:54:43;16.10;99.90
24682;DHT22;12802;53.390;-2.328;2022-07-29T07:57:14;16.10;99.90
24682;DHT22;12802;53.390;-2.328;2022-07-29T07:59:40;16.20;99.90
24682;DHT22;12802;53.390;-2.328;2022-07-29T08:02:07;16.30;99.90
24682;DHT22;12802;53.390;-2.328;2022-07-29T08:04:33;16.40;99.90
24682;DHT22;12802;53.390;-2.328;2022-07-29T08:07:00;16.40;99.90
24682;DHT22;12802;53.390;-2.328;2022-07-29T08:09:27;16.50;99.90
24682;DHT22;12802;53.390;-2.328;2022-07-29T08:11:54;16.60;99.90
24682;DHT22;12802;53.390;-2.328;2022-07-29T08:14:21;16.70;99.90
24682;DHT22;12802;53.390;-2.328;2022-07-29T08:16:46;16.90;99.90
24682;DHT22;12802;53.390;-2.328;2022-07-29T08:19:13;17.00;99.90
24682;DHT22;12802;53.390;-2.328;2022-07-29T08:21:39;17.00;99.90
24682;DHT22;12802;53.390;-2.328;2022-07-29T08:24:05;17.20;99.90
24682;DHT22;12802;53.390;-2.328;2022-07-29T08:26:50;17.20;99.90
24682;DHT22;12802;53.390;-2.328;2022-07-29T08:29:15;17.10;99.90
24682;DHT22;12802;53.390;-2.328;2022-07-29T08:31:43;17.10;99.90
24682;DHT22;12802;53.390;-2.328;2022-07-29T08:34:09;17.10;99.90
24682;DHT22;12802;53.390;-2.328;2022-07-29T08:36:35;17.10;99.90
24682;DHT22;12802;53.390;-2.328;2022-07-29T08:39:02;17.00;99.90
24682;DHT22;12802;53.390;-2.328;2022-07-29T08:41:28;16.90;99.90
24682;DHT22;12802;53.390;-2.328;2022-07-29T08:43:53;17.00;99.90
24682;DHT22;12802;53.390;-2.328;2022-07-29T08:46:20;17.00;99.90
24682;DHT22;12802;53.390;-2.328;2022-07-29T08:48:47;17.00;99.90
24682;DHT22;12802;53.390;-2.328;2022-07-29T08:51:15;16.90;99.90
24682;DHT22;12802;53.390;-2.328;2022-07-29T08:53:45;17.00;99.90
24682;DHT22;12802;53.390;-2.328;2022-07-29T08:56:13;17.00;99.90
24682;DHT22;12802;53.390;-2.328;2022-07-29T08:58:39;17.10;99.90
24682;DHT22;12802;53.390;-2.328;2022-07-29T09:01:07;17.20;99.90
24682;DHT22;12802;53.390;-2.328;2022-07-29T09:03:36;17.20;99.90
24682;DHT22;12802;53.390;-2.328;2022-07-29T09:06:03;17.20;99.90
24682;DHT22;12802;53.390;-2.328;2022-07-29T09:08:31;17.30;99.90
24682;DHT22;12802;53.390;-2.328;2022-07-29T09:10:57;17.30;99.90
24682;DHT22;12802;53.390;-2.328;2022-07-29T09:13:24;17.40;99.90
24682;DHT22;12802;53.390;-2.328;2022-07-29T09:15:50;17.40;99.90
24682;DHT22;12802;53.390;-2.328;2022-07-29T09:18:38;17.50;99.90
24682;DHT22;12802;53.390;-2.328;2022-07-29T09:21:07;17.50;99.90
24682;DHT22;12802;53.390;-2.328;2022-07-29T09:26:30;17.90;99.90
24682;DHT22;12802;53.390;-2.328;2022-07-29T09:28:57;17.90;99.90
24682;DHT22;12802;53.390;-2.328;2022-07-29T09:31:44;17.90;99.90
24682;DHT22;12802;53.390;-2.328;2022-07-29T09:34:11;17.80;99.90
24682;DHT22;12802;53.390;-2.328;2022-07-29T09:39:06;17.80;99.90
24682;DHT22;12802;53.390;-2.328;2022-07-29T09:41:50;17.80;99.90
24682;DHT22;12802;53.390;-2.328;2022-07-29T09:44:19;17.80;99.90
24682;DHT22;12802;53.390;-2.328;2022-07-29T09:47:00;17.80;99.90
24682;DHT22;12802;53.390;-2.328;2022-07-29T09:49:36;17.80;99.90
24682;DHT22;12802;53.390;-2.328;2022-07-29T09:52:15;17.80;99.90
24682;DHT22;12802;53.390;-2.328;2022-07-29T09:54:41;17.80;99.90
24682;DHT22;12802;53.390;-2.328;2022-07-29T09:57:30;17.80;99.90
24682;DHT22;12802;53.390;-2.328;2022-07-29T10:00:16;17.90;99.90
24682;DHT22;12802;53.390;-2.328;2022-07-29T10:02:44;17.90;99.90
24682;DHT22;12802;53.390;-2.328;2022-07-29T10:05:22;17.90;99.90
24682;DHT22;12802;53.390;-2.328;2022-07-29T10:07:53;17.90;99.90
24682;DHT22;12802;53.390;-2.328;2022-07-29T10:10:27;17.90;99.90
24682;DHT22;12802;53.390;-2.328;2022-07-29T10:12:56;17.90;99.90
24682;DHT22;12802;53.390;-2.328;2022-07-29T10:15:28;17.90;99.90
24682;DHT22;12802;53.390;-2.328;2022-07-29T10:17:55;17.90;99.90
24682;DHT22;12802;53.390;-2.328;2022-07-29T10:20:22;18.00;99.90
24682;DHT22;12802;53.390;-2.328;2022-07-29T10:22:50;18.00;99.90
24682;DHT22;12802;53.390;-2.328;2022-07-29T10:25:18;18.00;99.90
24682;DHT22;12802;53.390;-2.328;2022-07-29T10:27:48;18.00;99.90
24682;DHT22;12802;53.390;-2.328;2022-07-29T10:30:15;18.00;99.90
24682;DHT22;12802;53.390;-2.328;2022-07-29T10:35:58;18.00;99.90
24682;DHT22;12802;53.390;-2.328;2022-07-29T10:38:42;18.10;99.90
24682;DHT22;12802;53.390;-2.328;2022-07-29T10:44:02;18.30;99.90
24682;DHT22;12802;53.390;-2.328;2022-07-29T10:46:35;18.30;99.90
24682;DHT22;12802;53.390;-2.328;2022-07-29T10:54:18;18.20;99.90
24682;DHT22;12802;53.390;-2.328;2022-07-29T10:56:45;18.30;99.90
24682;DHT22;12802;53.390;-2.328;2022-07-29T11:01:49;18.50;99.90
24682;DHT22;12802;53.390;-2.328;2022-07-29T11:07:10;18.70;99.90
24682;DHT22;12802;53.390;-2.328;2022-07-29T11:09:35;18.80;99.90
24682;DHT22;12802;53.390;-2.328;2022-07-29T11:12:02;18.90;99.90
24682;DHT22;12802;53.390;-2.328;2022-07-29T11:14:59;18.90;99.90
24682;DHT22;12802;53.390;-2.328;2022-07-29T11:17:27;18.80;99.90
24682;DHT22;12802;53.390;-2.328;2022-07-29T11:22:58;18.80;99.90
24682;DHT22;12802;53.390;-2.328;2022-07-29T11:25:24;18.80;99.90
24682;DHT22;12802;53.390;-2.328;2022-07-29T11:28:07;18.70;99.90
24682;DHT22;12802;53.390;-2.328;2022-07-29T11:30:52;18.60;99.90
24682;DHT22;12802;53.390;-2.328;2022-07-29T11:33:32;18.60;99.90
24682;DHT22;12802;53.390;-2.328;2022-07-29T11:36:12;18.60;99.90
24682;DHT22;12802;53.390;-2.328;2022-07-29T11:38:38;18.70;99.90
24682;DHT22;12802;53.390;-2.328;2022-07-29T11:41:24;18.80;99.90
24682;DHT22;12802;53.390;-2.328;2022-07-29T11:43:53;18.90;99.90
24682;DHT22;12802;53.390;-2.328;2022-07-29T11:49:08;18.90;99.90
24682;DHT22;12802;53.390;-2.328;2022-07-29T11:51:36;18.90;99.90
24682;DHT22;12802;53.390;-2.328;2022-07-29T11:54:02;19.10;99.90
24682;DHT22;12802;53.390;-2.328;2022-07-29T11:56:31;19.20;99.90
24682;DHT22;12802;53.390;-2.328;2022-07-29T11:59:07;19.30;99.90
24682;DHT22;12802;53.390;-2.328;2022-07-29T12:01:35;19.30;99.90
24682;DHT22;12802;53.390;-2.328;2022-07-29T12:04:05;19.30;99.90
24682;DHT22;12802;53.390;-2.328;2022-07-29T12:06:31;19.30;99.90
24682;DHT22;12802;53.390;-2.328;2022-07-29T12:08:57;19.20;99.90
24682;DHT22;12802;53.390;-2.328;2022-07-29T12:11:23;19.20;99.90
24682;DHT22;12802;53.390;-2.328;2022-07-29T12:13:52;19.30;99.90
24682;DHT22;12802;53.390;-2.328;2022-07-29T12:16:19;19.30;99.90
24682;DHT22;12802;53.390;-2.328;2022-07-29T12:18:59;19.40;99.90
24682;DHT22;12802;53.390;-2.328;2022-07-29T12:21:25;19.50;99.90
24682;DHT22;12802;53.390;-2.328;2022-07-29T12:23:55;19.40;99.90
24682;DHT22;12802;53.390;-2.328;2022-07-29T12:26:21;19.40;99.90
24682;DHT22;12802;53.390;-2.328;2022-07-29T12:28:48;19.60;99.90
24682;DHT22;12802;53.390;-2.328;2022-07-29T12:31:14;19.60;99.90
24682;DHT22;12802;53.390;-2.328;2022-07-29T12:33:41;19.60;99.90
24682;DHT22;12802;53.390;-2.328;2022-07-29T12:36:08;19.70;99.90
24682;DHT22;12802;53.390;-2.328;2022-07-29T12:38:37;19.80;99.90
24682;DHT22;12802;53.390;-2.328;2022-07-29T12:41:05;19.80;99.90
24682;DHT22;12802;53.390;-2.328;2022-07-29T12:43:32;19.90;99.90
24682;DHT22;12802;53.390;-2.328;2022-07-29T12:46:14;19.90;99.90
24682;DHT22;12802;53.390;-2.328;2022-07-29T12:48:41;20.00;99.90
24682;DHT22;12802;53.390;-2.328;2022-07-29T12:51:08;20.10;99.90
24682;DHT22;12802;53.390;-2.328;2022-07-29T12:53:35;20.20;99.90
24682;DHT22;12802;53.390;-2.328;2022-07-29T12:56:03;20.30;99.90
24682;DHT22;12802;53.390;-2.328;2022-07-29T12:58:36;20.40;99.90
24682;DHT22;12802;53.390;-2.328;2022-07-29T13:01:14;20.60;99.90
24682;DHT22;12802;53.390;-2.328;2022-07-29T13:03:45;20.50;99.90
24682;DHT22;12802;53.390;-2.328;2022-07-29T13:06:37;20.70;99.90
24682;DHT22;12802;53.390;-2.328;2022-07-29T13:09:15;20.60;99.90
24682;DHT22;12802;53.390;-2.328;2022-07-29T13:11:48;20.40;99.90
24682;DHT22;12802;53.390;-2.328;2022-07-29T13:14:33;20.40;99.90
24682;DHT22;12802;53.390;-2.328;2022-07-29T13:19:44;20.30;99.90
24682;DHT22;12802;53.390;-2.328;2022-07-29T13:22:15;20.30;99.90
24682;DHT22;12802;53.390;-2.328;2022-07-29T13:27:18;20.50;99.90
24682;DHT22;12802;53.390;-2.328;2022-07-29T13:29:44;20.50;99.90
24682;DHT22;12802;53.390;-2.328;2022-07-29T13:32:11;20.50;99.90
24682;DHT22;12802;53.390;-2.328;2022-07-29T13:34:37;20.40;99.90
24682;DHT22;12802;53.390;-2.328;2022-07-29T13:37:03;20.40;99.90
24682;DHT22;12802;53.390;-2.328;2022-07-29T13:39:29;20.30;99.90
24682;DHT22;12802;53.390;-2.328;2022-07-29T13:41:55;20.40;99.90
24682;DHT22;12802;53.390;-2.328;2022-07-29T13:44:21;20.60;99.90
24682;DHT22;12802;53.390;-2.328;2022-07-29T13:46:47;20.70;99.90
24682;DHT22;12802;53.390;-2.328;2022-07-29T13:49:12;20.80;99.90
24682;DHT22;12802;53.390;-2.328;2022-07-29T13:51:38;21.00;99.90
24682;DHT22;12802;53.390;-2.328;2022-07-29T13:54:04;21.10;99.90
24682;DHT22;12802;53.390;-2.328;2022-07-29T13:56:30;20.80;99.90
24682;DHT22;12802;53.390;-2.328;2022-07-29T13:58:56;20.80;99.90
24682;DHT22;12802;53.390;-2.328;2022-07-29T14:01:23;20.70;99.90
24682;DHT22;12802;53.390;-2.328;2022-07-29T14:03:49;20.60;99.90
24682;DHT22;12802;53.390;-2.328;2022-07-29T14:06:15;20.50;99.90
24682;DHT22;12802;53.390;-2.328;2022-07-29T14:08:41;20.50;99.90
24682;DHT22;12802;53.390;-2.328;2022-07-29T14:11:07;20.50;99.90
24682;DHT22;12802;53.390;-2.328;2022-07-29T14:13:32;20.60;99.90
24682;DHT22;12802;53.390;-2.328;2022-07-29T14:15:58;20.60;99.90
24682;DHT22;12802;53.390;-2.328;2022-07-29T14:18:24;20.60;99.90
24682;DHT22;12802;53.390;-2.328;2022-07-29T14:20:50;20.50;99.90
24682;DHT22;12802;53.390;-2.328;2022-07-29T14:23:17;20.50;99.90
24682;DHT22;12802;53.390;-2.328;2022-07-29T14:25:42;20.60;99.90
24682;DHT22;12802;53.390;-2.328;2022-07-29T14:28:08;20.70;99.90
24682;DHT22;12802;53.390;-2.328;2022-07-29T14:30:34;20.80;99.90
24682;DHT22;12802;53.390;-2.328;2022-07-29T14:33:00;20.80;99.90
24682;DHT22;12802;53.390;-2.328;2022-07-29T14:35:26;20.80;99.90
24682;DHT22;12802;53.390;-2.328;2022-07-29T14:37:51;20.80;99.90
24682;DHT22;12802;53.390;-2.328;2022-07-29T14:40:17;20.70;99.90
24682;DHT22;12802;53.390;-2.328;2022-07-29T14:42:43;20.60;99.90
24682;DHT22;12802;53.390;-2.328;2022-07-29T14:45:09;20.60;99.90
24682;DHT22;12802;53.390;-2.328;2022-07-29T14:47:36;20.60;99.90
24682;DHT22;12802;53.390;-2.328;2022-07-29T14:50:02;20.60;99.90
24682;DHT22;12802;53.390;-2.328;2022-07-29T14:52:28;20.50;99.90
24682;DHT22;12802;53.390;-2.328;2022-07-29T14:54:54;20.60;99.90
24682;DHT22;12802;53.390;-2.328;2022-07-29T14:57:20;20.60;99.90
24682;DHT22;12802;53.390;-2.328;2022-07-29T14:59:46;20.50;99.90
24682;DHT22;12802;53.390;-2.328;2022-07-29T15:02:12;20.60;99.90
24682;DHT22;12802;53.390;-2.328;2022-07-29T15:04:37;20.60;99.90
24682;DHT22;12802;53.390;-2.328;2022-07-29T15:07:04;20.70;99.90
24682;DHT22;12802;53.390;-2.328;2022-07-29T15:09:30;20.70;99.90
24682;DHT22;12802;53.390;-2.328;2022-07-29T15:11:56;20.70;99.90
24682;DHT22;12802;53.390;-2.328;2022-07-29T15:14:21;20.70;99.90
24682;DHT22;12802;53.390;-2.328;2022-07-29T15:16:47;20.70;99.90
24682;DHT22;12802;53.390;-2.328;2022-07-29T15:19:13;20.70;99.90
24682;DHT22;12802;53.390;-2.328;2022-07-29T15:21:39;20.70;99.90
24682;DHT22;12802;53.390;-2.328;2022-07-29T15:24:05;20.70;99.90
24682;DHT22;12802;53.390;-2.328;2022-07-29T15:26:32;20.70;99.90
24682;DHT22;12802;53.390;-2.328;2022-07-29T15:28:59;20.70;99.90
24682;DHT22;12802;53.390;-2.328;2022-07-29T15:31:25;20.70;99.90
24682;DHT22;12802;53.390;-2.328;2022-07-29T15:33:50;20.60;99.90
24682;DHT22;12802;53.390;-2.328;2022-07-29T15:36:16;20.60;99.90
24682;DHT22;12802;53.390;-2.328;2022-07-29T15:38:42;20.50;99.90
24682;DHT22;12802;53.390;-2.328;2022-07-29T15:41:12;20.50;99.90
24682;DHT22;12802;53.390;-2.328;2022-07-29T15:43:43;20.50;99.90
24682;DHT22;12802;53.390;-2.328;2022-07-29T15:46:12;20.50;99.90
24682;DHT22;12802;53.390;-2.328;2022-07-29T15:48:56;20.50;99.90
24682;DHT22;12802;53.390;-2.328;2022-07-29T15:51:22;20.50;99.90
24682;DHT22;12802;53.390;-2.328;2022-07-29T15:53:48;20.50;99.90
24682;DHT22;12802;53.390;-2.328;2022-07-29T15:56:14;20.50;99.90
24682;DHT22;12802;53.390;-2.328;2022-07-29T15:58:39;20.50;99.90
24682;DHT22;12802;53.390;-2.328;2022-07-29T16:01:05;20.50;99.90
24682;DHT22;12802;53.390;-2.328;2022-07-29T16:03:31;20.50;99.90
24682;DHT22;12802;53.390;-2.328;2022-07-29T16:05:57;20.50;99.90
24682;DHT22;12802;53.390;-2.328;2022-07-29T16:08:23;20.50;99.90
24682;DHT22;12802;53.390;-2.328;2022-07-29T16:10:49;20.50;99.90
24682;DHT22;12802;53.390;-2.328;2022-07-29T16:13:15;20.40;99.90
24682;DHT22;12802;53.390;-2.328;2022-07-29T16:15:41;20.40;99.90
24682;DHT22;12802;53.390;-2.328;2022-07-29T16:18:06;20.40;99.90
24682;DHT22;12802;53.390;-2.328;2022-07-29T16:20:35;20.30;99.90
24682;DHT22;12802;53.390;-2.328;2022-07-29T16:23:01;20.30;99.90